Siedlce, Poland

10:51 AM CEST on August 29, 2014 (GMT +0200)
Jedrzejow Nowy | Change Station
CLOSE
Current Station
Personal Weather Station
Location: gmina Jakubow, MAZOWIECKIE
Elevation: 591 ft
Nearby Weather Stations

Elev 591 ft 52.19 °N, 21.72 °E | Updated 30 seconds ago

Clear
Clear
81.5 °F
Feels Like 81 °F
N
0.0
Wind Variable Wind from East
Gusts 0.0 mph

Today
High -- | Low -- °F
--% Chance of Precip.
Yesterday
High -- | Low -- °F
Precip. -- in
5:36 AM 7:25 PM
Waxing Crescent, 13% visible
Pressure 30.04 in
Visibility -9999.0 miles
Clouds
Heat Index 81 °F
Dew Point 57 °F
Humidity 44%
Rainfall -999.00 in
Snow Depth Not available.
UV Not available.
Pollen Not available.
Air Quality Not available.
Flu Activity Not available.
METAR EPWA 290830Z 22004KT 190V260 CAVOK 19/10 Q1017 NOSIG

More Conditions Fewer Conditions

Pressure 30.04 in
Visibility -9999.0 miles
Clouds
Heat Index 81 °F
Dew Point 57 °F
Humidity 44%
Rainfall -999.00 in
Snow Depth Not available.
UV Not available.
Pollen Not available.
Air Quality Not available.
Flu Activity Not available.
METAR EPWA 290830Z 22004KT 190V260 CAVOK 19/10 Q1017 NOSIG

More Conditions Fewer Conditions

10-Day Weather Forecast

Almanac

Astronomy

Aug. 29, 2014 Rise Set
Actual Time 5:36 AM CEST 7:25 PM CEST
Civil Twilight 5:00 AM CEST 8:01 PM CEST
Nautical Twilight 4:16 AM CEST 8:46 PM CEST
Astronomical Twilight 3:25 AM CEST 9:35 PM CEST
Moon 9:40 AM CEST 8:38 PM CEST
Length of Visible Light 15h 00m
Length of Day
13h 48m
Tomorrow will be 3m 54s shorter.
Waxing Crescent, 13% of the Moon is Illuminated
Today
Waxing Crescent
Sep 2
First Quarter
Sep 8
Full
Sep 15
Last Quarter
Sep 24
New

Yesterday's Extremes

Country Highs Country Lows

Community

WunderPhotos

Upload Photos

1,748,197 photos uploaded!

Nearby

Snow Depth

Not available.

Earthquake Activity

City Distance Mag. Time & Date
No recent earthquake activity has been reported nearby.
Minimum magnitude displayed is 2.5.

Coastal Water Temperatures

Place Temperature
No Stations Reporting

Nearby Weather Stations